Time;durP1;ratioP1;P1;durP2;ratioP2;P2;SDS_P1;SDS_P2;PMS_P1;PMS_P2;Temp;Humidity;BMP_temperature;BMP_pressure;BME280_temperature;BME280_humidity;BME280_pressure;Samples;Min_cycle;Max_cycle;Signal;HPM_P1;HPM_P2
2022/09/28 00:00:08;;;;;;;7.68;5.88;;;10.20;87.40;;;;;;5133053;27;20129;-28
2022/09/28 00:02:34;;;;;;;7.57;6.50;;;10.20;87.40;;;;;;5133171;28;20027;-28
2022/09/28 00:05:01;;;;;;;7.53;6.25;;;10.20;87.40;;;;;;5133515;28;20035;-27
2022/09/28 00:07:28;;;;;;;7.57;6.22;;;10.10;87.40;;;;;;5133326;28;20031;-27
2022/09/28 00:09:53;;;;;;;8.00;6.40;;;10.10;87.40;;;;;;5133271;28;20030;-26
2022/09/28 00:12:20;;;;;;;8.45;6.75;;;10.10;87.50;;;;;;5133106;28;20019;-27
2022/09/28 00:14:46;;;;;;;8.80;6.95;;;10.10;87.50;;;;;;5133435;28;20102;-27
2022/09/28 00:17:12;;;;;;;10.98;7.10;;;10.10;87.50;;;;;;5133153;28;20494;-28
2022/09/28 00:19:39;;;;;;;12.50;7.40;;;10.10;87.50;;;;;;5132943;28;20106;-26
2022/09/28 00:22:05;;;;;;;9.02;6.60;;;10.00;87.50;;;;;;5133012;28;20447;-26
2022/09/28 00:24:31;;;;;;;7.13;6.43;;;10.00;87.60;;;;;;5132972;28;20068;-26
2022/09/28 00:27:00;;;;;;;13.00;7.30;;;9.90;87.70;;;;;;5133129;28;20031;-26
2022/09/28 00:29:34;;;;;;;8.45;7.00;;;9.90;87.70;;;;;;5114278;28;20099;-26
2022/09/28 00:32:02;;;;;;;9.10;6.30;;;9.80;87.80;;;;;;5132608;28;20020;-28
2022/09/28 00:34:30;;;;;;;7.88;6.72;;;9.80;87.90;;;;;;5114631;28;20023;-26
2022/09/28 00:36:58;;;;;;;10.77;7.38;;;9.70;87.80;;;;;;5132629;28;20023;-26
2022/09/28 00:39:24;;;;;;;10.32;7.13;;;9.70;88.00;;;;;;5132952;28;20050;-27
2022/09/28 00:41:49;;;;;;;8.30;6.80;;;9.60;88.10;;;;;;5132928;28;20105;-28
2022/09/28 00:44:21;;;;;;;8.38;6.85;;;9.60;88.10;;;;;;5132658;28;20023;-28
2022/09/28 00:46:49;;;;;;;8.73;7.05;;;9.60;88.20;;;;;;5132292;28;20494;-27
2022/09/28 00:49:18;;;;;;;8.95;7.35;;;9.60;88.30;;;;;;5132767;28;20035;-26
2022/09/28 00:51:46;;;;;;;9.80;7.80;;;9.50;88.30;;;;;;5133134;28;20011;-27
2022/09/28 00:54:13;;;;;;;9.07;7.97;;;9.50;89.00;;;;;;5133077;28;20023;-30
2022/09/28 00:56:40;;;;;;;9.15;7.45;;;9.50;88.50;;;;;;5132594;28;20108;-27
2022/09/28 00:59:07;;;;;;;8.90;7.20;;;9.40;88.50;;;;;;5132736;28;20102;-27
2022/09/28 01:01:33;;;;;;;9.43;7.50;;;9.40;88.60;;;;;;5132575;28;20118;-26
2022/09/28 01:04:00;;;;;;;11.35;7.45;;;9.40;88.70;;;;;;5132454;28;20054;-27
2022/09/28 01:06:29;;;;;;;10.65;7.40;;;9.40;88.80;;;;;;5132672;27;20458;-27
2022/09/28 01:08:59;;;;;;;7.97;6.72;;;9.40;88.90;;;;;;5136076;27;20073;-27
2022/09/28 01:11:25;;;;;;;9.20;7.15;;;9.40;88.90;;;;;;5136141;27;20052;-27
2022/09/28 01:13:56;;;;;;;10.57;7.90;;;9.40;88.90;;;;;;5136645;27;20030;-27
2022/09/28 01:16:36;;;;;;;8.82;7.25;;;9.40;89.60;;;;;;5136820;27;20020;-28
2022/09/28 01:19:20;;;;;;;8.82;7.32;;;9.50;89.00;;;;;;5136686;27;20091;-27
2022/09/28 01:21:54;;;;;;;9.88;7.35;;;9.50;88.90;;;;;;5135965;27;20023;-28
2022/09/28 01:24:40;;;;;;;9.50;7.47;;;9.50;88.80;;;;;;5136270;27;20415;-27
2022/09/28 01:27:43;;;;;;;8.27;7.13;;;9.60;88.70;;;;;;5136139;27;20050;-27
2022/09/28 01:30:17;;;;;;;9.33;6.97;;;9.60;88.60;;;;;;5135988;27;20023;-28
2022/09/28 01:32:54;;;;;;;10.48;7.03;;;9.60;88.50;;;;;;5136204;27;20305;-26
2022/09/28 01:35:19;;;;;;;10.40;7.88;;;9.60;88.50;;;;;;5136225;27;20371;-26
2022/09/28 01:37:54;;;;;;;11.32;8.10;;;9.60;88.60;;;;;;5135980;27;20030;-30
2022/09/28 01:40:23;;;;;;;10.40;7.70;;;9.50;88.70;;;;;;5136099;27;20022;-27
2022/09/28 01:42:56;;;;;;;9.75;8.07;;;9.50;88.70;;;;;;5135734;27;20023;-27
2022/09/28 01:45:33;;;;;;;10.95;7.93;;;9.40;88.70;;;;;;5135682;27;20482;-25
2022/09/28 01:48:03;;;;;;;8.95;7.28;;;9.40;88.80;;;;;;5135915;27;20049;-28
2022/09/28 01:50:34;;;;;;;8.85;7.65;;;9.40;88.80;;;;;;5135479;27;20083;-26
2022/09/28 01:53:21;;;;;;;9.40;7.65;;;9.40;89.00;;;;;;5135494;27;20015;-26
2022/09/28 01:56:02;;;;;;;8.38;7.10;;;9.30;89.00;;;;;;5135518;27;20056;-26
2022/09/28 01:58:38;;;;;;;11.23;7.38;;;9.30;89.10;;;;;;5135379;27;20077;-27
2022/09/28 02:01:20;;;;;;;9.68;7.78;;;9.30;89.20;;;;;;5135930;27;20154;-26
2022/09/28 02:04:20;;;;;;;11.70;7.45;;;9.20;89.20;;;;;;5135293;27;20388;-25
2022/09/28 02:06:56;;;;;;;8.23;7.43;;;9.20;89.20;;;;;;5113919;27;20171;-34
2022/09/28 02:09:27;;;;;;;11.40;7.28;;;9.20;89.90;;;;;;5135333;27;20019;-29
2022/09/28 02:12:00;;;;;;;9.70;7.13;;;9.20;89.30;;;;;;5099914;27;20115;-26
2022/09/28 02:14:28;;;;;;;;;;;9.20;89.40;;;;;;5136084;27;20033;-27
2022/09/28 02:16:55;;;;;;;12.02;6.90;;;9.20;89.40;;;;;;5116658;27;19910;-28
2022/09/28 02:19:26;;;;;;;10.25;7.68;;;9.10;89.30;;;;;;5135307;27;20493;-29
2022/09/28 02:22:22;;;;;;;10.00;7.20;;;9.10;89.40;;;;;;5134816;27;20106;-28
2022/09/28 02:24:47;;;;;;;8.90;7.20;;;9.20;89.50;;;;;;5134805;27;20023;-28
2022/09/28 02:27:17;;;;;;;15.63;9.02;;;9.20;89.40;;;;;;5134697;27;20045;-29
2022/09/28 02:29:43;;;;;;;9.18;7.50;;;9.20;89.40;;;;;;5135049;27;20481;-26
2022/09/28 02:32:09;;;;;;;10.68;8.52;;;9.20;89.30;;;;;;5134606;27;20023;-26
2022/09/28 02:34:35;;;;;;;10.38;8.05;;;9.20;89.30;;;;;;5134609;27;20019;-26
2022/09/28 02:37:01;;;;;;;10.60;8.15;;;9.30;89.40;;;;;;5116467;27;20030;-28
2022/09/28 02:39:27;;;;;;;11.55;8.55;;;9.30;89.30;;;;;;5134478;27;20035;-26
2022/09/28 02:42:02;;;;;;;10.98;8.25;;;9.30;89.30;;;;;;5134732;27;20463;-29
2022/09/28 02:45:01;;;;;;;12.40;8.48;;;9.40;89.30;;;;;;5134624;27;20023;-26
2022/09/28 02:47:46;;;;;;;10.65;8.18;;;9.40;89.30;;;;;;5134342;27;20077;-27
2022/09/28 02:50:23;;;;;;;11.23;8.25;;;9.40;89.20;;;;;;5134275;27;20020;-27
2022/09/28 02:53:13;;;;;;;9.98;7.95;;;9.40;89.20;;;;;;5134376;27;20030;-29
2022/09/28 02:56:04;;;;;;;10.38;8.52;;;9.50;89.20;;;;;;5134464;27;20371;-31
2022/09/28 02:59:05;;;;;;;9.50;8.18;;;9.50;89.10;;;;;;5134722;27;20216;-28
2022/09/28 03:02:07;;;;;;;10.60;8.10;;;9.50;89.10;;;;;;5134579;27;20034;-28
2022/09/28 03:04:46;;;;;;;11.93;8.52;;;9.50;89.10;;;;;;5134270;27;20111;-27
2022/09/28 03:07:26;;;;;;;10.68;8.10;;;9.50;89.00;;;;;;5134135;27;20069;-30
2022/09/28 03:10:00;;;;;;;9.73;7.60;;;9.50;89.10;;;;;;5134314;27;20023;-26
2022/09/28 03:12:28;;;;;;;10.30;8.20;;;9.50;89.20;;;;;;5134180;27;20038;-30
2022/09/28 03:15:08;;;;;;;11.68;7.90;;;9.50;89.20;;;;;;5115702;27;20080;-28
2022/09/28 03:17:33;;;;;;;9.70;7.97;;;9.50;89.20;;;;;;5134407;27;20023;-33
2022/09/28 03:19:59;;;;;;;12.13;8.23;;;9.60;89.20;;;;;;5134225;27;20023;-27
2022/09/28 03:22:25;;;;;;;10.02;8.40;;;9.60;89.20;;;;;;5134322;27;20027;-27
2022/09/28 03:24:50;;;;;;;11.00;7.55;;;9.60;89.20;;;;;;5134007;27;20098;-27
2022/09/28 03:27:16;;;;;;;9.68;7.93;;;9.60;89.20;;;;;;5134138;27;20076;-29
2022/09/28 03:29:41;;;;;;;10.70;7.78;;;9.60;89.10;;;;;;5133655;27;20068;-27
2022/09/28 03:32:07;;;;;;;8.82;7.45;;;9.60;89.10;;;;;;5134229;27;20030;-28
2022/09/28 03:34:34;;;;;;;9.43;7.88;;;9.60;89.10;;;;;;5134089;27;20022;-26
2022/09/28 03:36:59;;;;;;;9.20;7.80;;;9.60;89.20;;;;;;5134119;27;20515;-31
2022/09/28 03:39:25;;;;;;;8.35;7.13;;;9.60;89.10;;;;;;5133857;27;20093;-27
2022/09/28 03:41:50;;;;;;;8.52;7.15;;;9.60;89.10;;;;;;5133495;27;20011;-28
2022/09/28 03:44:16;;;;;;;7.18;6.43;;;9.60;89.10;;;;;;5133478;27;20027;-25
2022/09/28 03:46:41;;;;;;;8.50;6.38;;;9.60;89.10;;;;;;5133546;27;20092;-25
2022/09/28 03:49:08;;;;;;;8.32;6.60;;;9.60;89.10;;;;;;5133476;27;20027;-25
2022/09/28 03:51:34;;;;;;;7.53;6.15;;;9.60;89.00;;;;;;5133560;27;20039;-25
2022/09/28 03:53:59;;;;;;;8.85;7.03;;;9.70;89.10;;;;;;5133163;27;20027;-27
2022/09/28 03:56:25;;;;;;;10.95;6.03;;;9.70;89.00;;;;;;5133317;27;20107;-24
2022/09/28 03:58:51;;;;;;;8.45;6.45;;;9.70;89.00;;;;;;5132993;27;20050;-25
2022/09/28 04:01:16;;;;;;;6.78;5.85;;;9.60;89.00;;;;;;5133507;27;20027;-26
2022/09/28 04:03:42;;;;;;;7.25;5.63;;;9.60;88.90;;;;;;5133389;28;20019;-24
2022/09/28 04:06:08;;;;;;;8.63;5.68;;;9.70;89.00;;;;;;5133109;28;20115;-24
2022/09/28 04:08:33;;;;;;;8.30;5.90;;;9.70;89.00;;;;;;5133033;28;20451;-26
2022/09/28 04:11:00;;;;;;;7.70;5.70;;;9.70;89.00;;;;;;5132899;28;20024;-24
2022/09/28 04:13:27;;;;;;;7.40;5.70;;;9.70;88.90;;;;;;5133142;28;20098;-24
2022/09/28 04:15:55;;;;;;;7.57;6.00;;;9.70;88.90;;;;;;5133050;28;20068;-24
2022/09/28 04:18:21;;;;;;;8.27;5.68;;;9.70;88.90;;;;;;5114784;28;20027;-24
2022/09/28 04:20:47;;;;;;;5.57;5.07;;;9.70;88.80;;;;;;5133020;28;20483;-24
2022/09/28 04:23:15;;;;;;;6.13;4.82;;;9.70;88.70;;;;;;5133296;28;20026;-24
2022/09/28 04:25:41;;;;;;;5.93;4.88;;;9.70;88.70;;;;;;5133274;28;20023;-26
2022/09/28 04:30:52;;;;;;;8.48;4.45;;;9.70;88.70;;;;;;5133418;28;20050;-23
2022/09/28 04:33:17;;;;;;;4.95;4.28;;;9.70;88.60;;;;;;5132984;28;20011;-24
2022/09/28 04:35:43;;;;;;;5.13;4.07;;;9.70;88.70;;;;;;5133077;28;20101;-26
2022/09/28 04:38:08;;;;;;;4.80;3.83;;;9.70;88.70;;;;;;5132704;28;20098;-27
2022/09/28 04:40:34;;;;;;;4.55;3.60;;;9.60;88.70;;;;;;5132868;28;20047;-29
2022/09/28 04:43:00;;;;;;;4.30;3.90;;;9.60;88.80;;;;;;5134997;27;20062;-27
2022/09/28 04:45:25;;;;;;;6.60;4.25;;;9.50;88.90;;;;;;5136927;27;20031;-26
2022/09/28 04:47:51;;;;;;;6.20;4.22;;;9.50;89.00;;;;;;5136735;27;20023;-28
2022/09/28 04:50:17;;;;;;;6.45;4.25;;;9.40;89.00;;;;;;5136949;27;20061;-26
2022/09/28 04:52:42;;;;;;;5.43;4.18;;;9.30;89.10;;;;;;5136756;27;20011;-28
2022/09/28 04:55:10;;;;;;;5.38;4.43;;;9.30;89.10;;;;;;5136966;27;20023;-42
2022/09/28 04:57:36;;;;;;;5.93;4.15;;;9.20;89.30;;;;;;5136627;27;20223;-40
2022/09/28 05:00:03;;;;;;;4.90;4.22;;;9.20;89.30;;;;;;5136594;27;20461;-40
2022/09/28 05:02:28;;;;;;;4.97;4.38;;;9.10;89.30;;;;;;5136855;27;20023;-42
2022/09/28 05:04:55;;;;;;;6.93;4.40;;;9.10;89.40;;;;;;5136582;27;20015;-42
2022/09/28 05:07:21;;;;;;;5.00;4.32;;;9.10;89.50;;;;;;5136814;27;20050;-40
2022/09/28 05:09:46;;;;;;;6.05;4.22;;;9.10;89.50;;;;;;5136628;27;20405;-25
2022/09/28 05:12:12;;;;;;;5.15;4.50;;;9.00;89.60;;;;;;5136389;27;20016;-24
2022/09/28 05:14:37;;;;;;;5.07;3.85;;;9.00;89.50;;;;;;5117685;27;20023;-24
2022/09/28 05:17:03;;;;;;;5.30;4.13;;;9.00;89.60;;;;;;5136465;27;20027;-24
2022/09/28 05:19:29;;;;;;;6.22;5.03;;;9.00;89.60;;;;;;5136450;27;20478;-26
2022/09/28 05:21:56;;;;;;;5.05;4.22;;;9.00;89.70;;;;;;5136021;27;20050;-27
2022/09/28 05:24:22;;;;;;;7.50;4.68;;;8.90;89.60;;;;;;5136519;27;20490;-24
2022/09/28 05:26:48;;;;;;;6.43;4.70;;;8.90;89.70;;;;;;5136186;27;20095;-25
2022/09/28 05:29:14;;;;;;;6.00;4.70;;;8.90;89.70;;;;;;5136200;27;20015;-24
2022/09/28 05:31:39;;;;;;;5.55;4.32;;;8.90;89.70;;;;;;5136130;27;20505;-24
2022/09/28 05:34:05;;;;;;;5.93;4.38;;;8.80;89.70;;;;;;5136276;27;20030;-24
2022/09/28 05:36:31;;;;;;;5.82;4.63;;;8.80;89.70;;;;;;5136115;27;20051;-24
2022/09/28 05:38:57;;;;;;;9.45;4.82;;;8.80;89.70;;;;;;5136132;27;20027;-24
2022/09/28 05:41:22;;;;;;;7.18;4.95;;;8.80;89.70;;;;;;5135689;27;20383;-24
2022/09/28 05:43:50;;;;;;;7.82;5.32;;;8.80;89.70;;;;;;5135802;27;20470;-24
2022/09/28 05:46:16;;;;;;;8.43;6.00;;;8.70;89.70;;;;;;5135968;27;20027;-24
2022/09/28 05:48:42;;;;;;;5.78;4.88;;;8.70;89.70;;;;;;5135890;27;20477;-24
2022/09/28 05:51:09;;;;;;;5.63;5.03;;;8.70;89.80;;;;;;5135869;27;20039;-24
2022/09/28 05:53:34;;;;;;;5.40;4.60;;;8.70;89.80;;;;;;5135192;27;20019;-23
2022/09/28 05:56:00;;;;;;;6.03;5.05;;;8.70;89.80;;;;;;5117180;27;20070;-24
2022/09/28 05:58:27;;;;;;;5.25;4.70;;;8.60;89.80;;;;;;5135538;27;20070;-24
2022/09/28 06:00:54;;;;;;;6.72;4.82;;;8.60;89.80;;;;;;5135460;27;20030;-25
2022/09/28 06:03:20;;;;;;;5.85;4.95;;;8.60;89.70;;;;;;5135846;27;20405;-24
2022/09/28 06:05:46;;;;;;;6.75;5.00;;;8.60;89.80;;;;;;5135465;27;20024;-24
2022/09/28 06:08:12;;;;;;;6.68;4.90;;;8.60;89.80;;;;;;5116963;27;20027;-25
2022/09/28 06:10:38;;;;;;;6.13;4.90;;;8.60;89.80;;;;;;5135392;27;20022;-24
2022/09/28 06:13:05;;;;;;;5.55;4.70;;;8.60;89.90;;;;;;5135433;27;20375;-24
2022/09/28 06:15:32;;;;;;;6.95;4.65;;;8.60;89.90;;;;;;5135352;27;20026;-23
2022/09/28 06:18:13;;;;;;;5.28;4.45;;;8.60;89.90;;;;;;5134912;27;20091;-25
2022/09/28 06:20:42;;;;;;;5.55;4.68;;;8.60;89.90;;;;;;5135085;27;20457;-25
2022/09/28 06:23:08;;;;;;;5.45;4.72;;;8.60;89.90;;;;;;5116237;27;20022;-24
2022/09/28 06:25:34;;;;;;;5.57;4.32;;;8.60;89.90;;;;;;5134945;27;20023;-25
2022/09/28 06:28:03;;;;;;;5.65;4.45;;;8.60;89.90;;;;;;5134581;27;20030;-25
2022/09/28 06:30:30;;;;;;;4.95;4.25;;;8.60;89.80;;;;;;5134894;27;20023;-25
2022/09/28 06:32:58;;;;;;;6.30;4.38;;;8.60;89.80;;;;;;5116579;27;20040;-24
2022/09/28 06:35:26;;;;;;;6.15;4.50;;;8.60;89.70;;;;;;5134556;27;20427;-25
2022/09/28 06:37:52;;;;;;;5.07;4.30;;;8.70;89.80;;;;;;5134675;27;20023;-24
2022/09/28 06:40:19;;;;;;;4.30;3.90;;;8.70;89.70;;;;;;5134929;27;20458;-25
2022/09/28 06:43:00;;;;;;;6.07;4.63;;;8.70;89.70;;;;;;5135093;27;20027;-24
2022/09/28 06:45:28;;;;;;;5.80;4.50;;;8.70;89.70;;;;;;5134485;27;20360;-24
2022/09/28 06:47:58;;;;;;;6.25;4.60;;;8.70;89.70;;;;;;5134627;27;20368;-23
2022/09/28 06:50:26;;;;;;;5.60;4.57;;;8.70;89.60;;;;;;5134407;27;20044;-24
2022/09/28 06:52:53;;;;;;;6.53;5.20;;;8.70;89.60;;;;;;5134492;27;20030;-24
2022/09/28 06:55:19;;;;;;;5.90;5.18;;;8.70;89.70;;;;;;5134708;27;20029;-23
2022/09/28 06:57:45;;;;;;;6.13;4.70;;;8.70;89.80;;;;;;5134278;27;20051;-24
2022/09/28 07:00:11;;;;;;;7.90;4.15;;;8.80;89.80;;;;;;5134283;27;20489;-26
2022/09/28 07:02:36;;;;;;;6.07;4.35;;;8.80;89.70;;;;;;5115946;27;20035;-26
2022/09/28 07:05:02;;;;;;;4.68;4.18;;;8.90;89.70;;;;;;5133576;27;20020;-26
2022/09/28 07:07:30;;;;;;;4.72;3.53;;;9.00;89.80;;;;;;5134337;27;20109;-25
2022/09/28 07:09:55;;;;;;;4.68;3.60;;;9.00;89.70;;;;;;5134194;27;20020;-26
2022/09/28 07:12:22;;;;;;;4.88;3.90;;;9.00;89.60;;;;;;5133707;27;20087;-25
2022/09/28 07:14:48;;;;;;;5.38;3.88;;;9.10;89.60;;;;;;5134049;27;20371;-24
2022/09/28 07:17:14;;;;;;;4.32;3.92;;;9.10;89.50;;;;;;5134124;27;20160;-26
2022/09/28 07:19:40;;;;;;;5.07;3.47;;;9.20;89.60;;;;;;5133704;27;20027;-26
2022/09/28 07:22:06;;;;;;;3.65;3.28;;;9.20;89.50;;;;;;5133841;27;20046;-25
2022/09/28 07:24:31;;;;;;;3.42;3.08;;;9.30;89.40;;;;;;5133881;27;20026;-26
2022/09/28 07:26:57;;;;;;;3.45;3.15;;;9.30;89.40;;;;;;5133416;27;20027;-25
2022/09/28 07:29:22;;;;;;;4.15;3.00;;;9.30;89.30;;;;;;5133686;27;20027;-25
2022/09/28 07:31:48;;;;;;;3.15;2.83;;;9.40;89.30;;;;;;5133910;27;20026;-26
2022/09/28 07:34:14;;;;;;;3.67;2.90;;;9.40;89.20;;;;;;5134060;27;20015;-26
2022/09/28 07:36:39;;;;;;;5.75;2.45;;;9.50;89.20;;;;;;5134329;27;20446;-25
2022/09/28 07:39:05;;;;;;;2.70;2.25;;;9.60;89.20;;;;;;5133694;27;20091;-25
2022/09/28 07:41:33;;;;;;;2.50;2.30;;;9.60;89.10;;;;;;5133929;27;20050;-25
2022/09/28 07:44:04;;;;;;;2.33;1.90;;;9.70;89.10;;;;;;5133752;27;20015;-26
2022/09/28 07:46:36;;;;;;;3.65;1.90;;;9.70;88.90;;;;;;5133410;27;20474;-25
2022/09/28 07:49:05;;;;;;;2.35;1.75;;;9.80;88.90;;;;;;5133538;27;20505;-25
2022/09/28 07:51:32;;;;;;;2.92;1.92;;;9.90;89.50;;;;;;5114776;28;20110;-25
2022/09/28 07:53:58;;;;;;;1.67;1.58;;;10.00;88.80;;;;;;5133473;27;20023;-28
2022/09/28 07:56:24;;;;;;;1.85;1.60;;;10.00;88.70;;;;;;5133518;27;20022;-25
2022/09/28 07:58:50;;;;;;;2.00;1.60;;;10.10;88.60;;;;;;5114534;27;20078;-24
2022/09/28 08:01:16;;;;;;;1.50;1.40;;;10.10;88.50;;;;;;5133432;27;20407;-26
2022/09/28 08:03:46;;;;;;;1.42;1.10;;;10.20;88.40;;;;;;5133480;27;20025;-27
2022/09/28 08:06:15;;;;;;;1.10;1.00;;;10.20;88.30;;;;;;5133201;28;20105;-27
2022/09/28 08:08:45;;;;;;;2.25;0.90;;;10.30;88.30;;;;;;5133256;28;20384;-25
2022/09/28 08:11:12;;;;;;;0.90;0.90;;;10.40;88.20;;;;;;5133273;28;20160;-28
2022/09/28 08:13:38;;;;;;;0.75;0.70;;;10.50;88.00;;;;;;5133383;28;20066;-27
2022/09/28 08:16:06;;;;;;;1.25;0.80;;;10.50;87.90;;;;;;5134166;27;20026;-25
2022/09/28 08:18:32;;;;;;;1.25;1.10;;;10.50;87.80;;;;;;5137859;27;20470;-27
2022/09/28 08:23:41;;;;;;;1.35;1.10;;;10.70;87.70;;;;;;5137589;27;20110;-25
2022/09/28 08:26:07;;;;;;;2.92;1.30;;;10.70;87.60;;;;;;5137785;27;20054;-26
2022/09/28 08:28:36;;;;;;;1.50;1.05;;;10.80;87.60;;;;;;5119039;27;20102;-24
2022/09/28 08:31:01;;;;;;;2.50;1.10;;;10.80;87.50;;;;;;5137556;27;20381;-25
2022/09/28 08:33:27;;;;;;;1.73;1.08;;;10.90;87.40;;;;;;5137000;27;20027;-26
2022/09/28 08:36:00;;;;;;;1.60;1.20;;;11.00;87.30;;;;;;5137254;27;20029;-27
2022/09/28 08:38:28;;;;;;;2.10;0.90;;;11.00;87.10;;;;;;5137530;27;20019;-25
2022/09/28 08:41:14;;;;;;;3.45;0.80;;;11.10;87.00;;;;;;5137310;27;20102;-28
2022/09/28 08:43:54;;;;;;;1.00;0.82;;;11.10;86.80;;;;;;5137128;27;20024;-25
2022/09/28 08:46:25;;;;;;;1.50;0.80;;;11.20;86.80;;;;;;5136782;27;20071;-23
2022/09/28 08:49:09;;;;;;;1.40;0.95;;;11.20;86.50;;;;;;5136693;27;20475;-25
2022/09/28 08:51:48;;;;;;;1.02;0.80;;;11.20;86.30;;;;;;5136885;27;20088;-25
2022/09/28 08:54:17;;;;;;;0.75;0.70;;;11.30;86.90;;;;;;5136550;27;20094;-25
2022/09/28 08:56:53;;;;;;;1.92;1.08;;;11.30;86.20;;;;;;5136653;27;20421;-25
2022/09/28 08:59:24;;;;;;;2.40;0.80;;;11.40;86.10;;;;;;5136950;27;20432;-25
2022/09/28 09:01:57;;;;;;;1.05;0.70;;;11.40;86.00;;;;;;5136926;27;20470;-26
2022/09/28 09:04:22;;;;;;;0.60;0.60;;;11.50;85.80;;;;;;5136621;27;20019;-25
2022/09/28 09:07:01;;;;;;;2.53;0.85;;;11.60;85.80;;;;;;5136606;27;20072;-25
2022/09/28 09:09:52;;;;;;;1.17;0.68;;;11.60;85.70;;;;;;5136857;27;20039;-26
2022/09/28 09:12:47;;;;;;;3.83;0.80;;;11.70;85.70;;;;;;5137033;27;20015;-25
2022/09/28 09:15:25;;;;;;;2.15;0.50;;;11.80;85.60;;;;;;5137510;27;20027;-26
2022/09/28 09:18:13;;;;;;;2.28;0.40;;;11.90;85.50;;;;;;5136747;27;20023;-28
2022/09/28 09:21:09;;;;;;;0.50;0.50;;;12.10;85.20;;;;;;5136803;27;20102;-24
2022/09/28 09:23:56;;;;;;;0.73;0.60;;;12.10;84.90;;;;;;5136592;27;20079;-24
2022/09/28 09:26:37;;;;;;;2.78;0.43;;;12.20;84.80;;;;;;5135940;27;20035;-26
2022/09/28 09:29:29;;;;;;;1.15;0.55;;;12.30;84.60;;;;;;5135674;27;20031;-24
2022/09/28 09:32:16;;;;;;;0.30;0.30;;;12.30;84.30;;;;;;5136479;27;20019;-32
2022/09/28 09:34:54;;;;;;;1.02;0.38;;;12.40;84.10;;;;;;5136617;27;20023;-24
2022/09/28 09:37:49;;;;;;;0.50;0.30;;;12.50;83.90;;;;;;5136489;27;20023;-25
2022/09/28 09:40:40;;;;;;;1.58;0.57;;;12.50;83.70;;;;;;5136578;27;20027;-27
2022/09/28 09:43:31;;;;;;;1.67;0.32;;;12.50;83.70;;;;;;5136561;27;20551;-24
2022/09/28 09:45:57;;;;;;;0.40;0.32;;;12.60;83.50;;;;;;5135836;27;20027;-26
2022/09/28 09:48:28;;;;;;;1.75;0.30;;;12.70;83.20;;;;;;5136060;27;20379;-25
2022/09/28 09:50:59;;;;;;;0.70;0.40;;;12.70;82.90;;;;;;5136047;27;20538;-25
2022/09/28 09:53:40;;;;;;;1.17;0.30;;;12.80;82.40;;;;;;5136371;27;20023;-26
2022/09/28 09:56:26;;;;;;;0.85;0.30;;;13.00;82.20;;;;;;5136069;27;20420;-27
2022/09/28 09:58:58;;;;;;;3.03;0.52;;;13.00;81.70;;;;;;5135538;27;20047;-26
2022/09/28 10:01:34;;;;;;;0.40;0.30;;;13.20;81.30;;;;;;5135895;27;20027;-27
2022/09/28 10:04:01;;;;;;;1.83;0.52;;;13.40;80.90;;;;;;5135544;27;20023;-25
2022/09/28 10:06:33;;;;;;;0.30;0.30;;;13.50;80.70;;;;;;5135710;27;20079;-25
2022/09/28 10:09:12;;;;;;;1.10;0.40;;;13.60;80.30;;;;;;5135517;27;20019;-27
2022/09/28 10:11:47;;;;;;;0.40;0.20;;;13.70;80.00;;;;;;5135486;27;20481;-29
2022/09/28 10:14:18;;;;;;;2.47;0.30;;;13.60;79.40;;;;;;5135873;27;20020;-25
2022/09/28 10:16:47;;;;;;;1.10;0.43;;;13.60;79.20;;;;;;5135266;27;20023;-30
2022/09/28 10:19:13;;;;;;;1.02;0.40;;;13.60;79.20;;;;;;5135530;27;20503;-25
2022/09/28 10:21:41;;;;;;;0.70;0.40;;;13.60;79.00;;;;;;5135172;27;20080;-27
2022/09/28 10:24:46;;;;;;;1.45;0.40;;;13.70;78.90;;;;;;5135101;27;20106;-25
2022/09/28 10:27:22;;;;;;;2.25;0.40;;;13.80;78.40;;;;;;5120009;27;20058;-30
2022/09/28 10:29:59;;;;;;;0.70;0.30;;;13.80;78.20;;;;;;5135101;27;20015;-26
2022/09/28 10:32:35;;;;;;;1.27;0.45;;;13.80;78.20;;;;;;5135181;27;20102;-25
2022/09/28 10:35:21;;;;;;;0.50;0.40;;;13.90;78.20;;;;;;5135292;27;20023;-23
2022/09/28 10:37:53;;;;;;;0.50;0.30;;;13.80;77.50;;;;;;5135161;27;20517;-42
2022/09/28 10:40:48;;;;;;;0.65;0.43;;;13.90;77.50;;;;;;5134068;27;20364;-40
2022/09/28 10:43:23;;;;;;;1.55;0.50;;;14.10;76.90;;;;;;5134857;27;20023;-41
2022/09/28 10:46:02;;;;;;;0.40;0.25;;;14.20;76.20;;;;;;5135100;27;20481;-42
2022/09/28 10:48:35;;;;;;;1.55;0.40;;;14.30;75.90;;;;;;5134413;27;20019;-38
2022/09/28 10:51:07;;;;;;;;;;;14.30;75.60;;;;;;5134931;27;20503;-40
2022/09/28 10:53:37;;;;;;;0.98;0.30;;;14.30;75.60;;;;;;5134533;27;19903;-39
2022/09/28 10:56:24;;;;;;;2.80;0.63;;;14.30;75.50;;;;;;5134636;27;20451;-43
2022/09/28 10:58:50;;;;;;;1.48;0.50;;;14.30;75.20;;;;;;5133521;27;20099;-40
2022/09/28 11:01:21;;;;;;;1.23;0.30;;;14.30;75.00;;;;;;5134341;27;20394;-38
2022/09/28 11:04:00;;;;;;;0.80;0.50;;;14.30;75.00;;;;;;5134322;27;20099;-23
2022/09/28 11:06:31;;;;;;;0.40;0.40;;;14.20;75.00;;;;;;5134608;27;20023;-26
2022/09/28 11:09:00;;;;;;;1.33;0.70;;;14.20;74.90;;;;;;5134027;27;20034;-26
2022/09/28 11:11:27;;;;;;;0.28;0.28;;;14.30;74.60;;;;;;5134231;27;20015;-26
2022/09/28 11:13:59;;;;;;;0.50;0.25;;;14.30;74.40;;;;;;5133974;27;20019;-27
2022/09/28 11:16:30;;;;;;;0.30;0.30;;;14.40;74.20;;;;;;5116525;27;20015;-26
2022/09/28 11:19:01;;;;;;;0.57;0.40;;;14.40;73.90;;;;;;5134226;27;20066;-28
2022/09/28 11:21:31;;;;;;;0.43;0.13;;;14.40;74.20;;;;;;5133811;27;20034;-41
2022/09/28 11:24:07;;;;;;;1.08;0.28;;;14.40;74.10;;;;;;5133705;27;20068;-42
2022/09/28 11:26:44;;;;;;;0.38;0.10;;;14.60;74.20;;;;;;5134081;27;20386;-41
2022/09/28 11:29:20;;;;;;;0.28;0.28;;;14.80;74.20;;;;;;5116031;27;20023;-44
2022/09/28 11:31:46;;;;;;;1.20;0.30;;;14.90;73.80;;;;;;5133800;27;20020;-43
2022/09/28 11:34:29;;;;;;;0.10;0.10;;;15.00;73.50;;;;;;5133768;27;20383;-42
2022/09/28 11:37:12;;;;;;;0.30;0.13;;;15.10;73.10;;;;;;5133938;27;20019;-44
2022/09/28 11:40:16;;;;;;;0.40;0.20;;;15.10;72.40;;;;;;5133433;27;20034;-42
2022/09/28 11:42:45;;;;;;;0.88;0.22;;;15.20;71.70;;;;;;5132502;27;20035;-43
2022/09/28 11:45:47;;;;;;;0.95;0.25;;;15.20;71.80;;;;;;5133348;27;20019;-40
2022/09/28 11:48:17;;;;;;;0.10;0.10;;;15.20;72.00;;;;;;5133225;27;20027;-46
2022/09/28 11:50:55;;;;;;;0.40;0.17;;;15.30;71.90;;;;;;5133091;27;20011;-44
2022/09/28 11:53:35;;;;;;;0.55;0.13;;;15.30;71.10;;;;;;5133271;27;20098;-41
2022/09/28 11:56:25;;;;;;;0.95;0.30;;;15.30;71.00;;;;;;5133565;27;20127;-39
2022/09/28 11:58:54;;;;;;;0.57;0.20;;;15.30;70.90;;;;;;5133245;27;20544;-42
2022/09/28 12:01:23;;;;;;;0.75;0.20;;;15.20;71.10;;;;;;5133482;27;20058;-42
2022/09/28 12:04:00;;;;;;;1.42;0.20;;;15.20;71.20;;;;;;5133313;27;20033;-39
2022/09/28 12:06:36;;;;;;;0.30;0.00;;;15.10;71.20;;;;;;5133405;28;20094;-38
2022/09/28 12:09:13;;;;;;;0.13;0.10;;;15.10;71.20;;;;;;5133297;28;20031;-43
2022/09/28 12:11:44;;;;;;;0.57;0.30;;;15.00;71.20;;;;;;5133164;28;20019;-43
2022/09/28 12:14:21;;;;;;;1.50;0.20;;;15.00;71.50;;;;;;5133319;28;20375;-42
2022/09/28 12:17:27;;;;;;;1.25;0.28;;;15.00;71.60;;;;;;5133261;28;20072;-41
2022/09/28 12:20:02;;;;;;;0.30;0.10;;;15.00;71.60;;;;;;5133285;28;20031;-44
2022/09/28 12:22:34;;;;;;;0.57;0.30;;;14.90;71.50;;;;;;5133194;28;20026;-44
2022/09/28 12:25:02;;;;;;;0.75;0.20;;;14.90;71.70;;;;;;5133089;28;20019;-43
2022/09/28 12:27:39;;;;;;;0.63;0.10;;;14.90;71.80;;;;;;5133156;28;20138;-43
2022/09/28 12:30:11;;;;;;;1.90;0.22;;;14.80;72.00;;;;;;5133337;28;20015;-42
2022/09/28 12:32:51;;;;;;;0.10;0.10;;;14.70;71.90;;;;;;5132875;28;20114;-42
2022/09/28 12:35:53;;;;;;;0.80;0.10;;;14.70;71.70;;;;;;5133057;28;20526;-42
2022/09/28 12:38:37;;;;;;;0.45;0.10;;;14.70;71.50;;;;;;5132946;28;20032;-43
2022/09/28 12:41:31;;;;;;;0.30;0.20;;;14.70;71.40;;;;;;5132880;28;20072;-42
2022/09/28 12:44:24;;;;;;;0.15;0.10;;;14.80;71.10;;;;;;5089132;28;20402;-40
2022/09/28 12:47:18;;;;;;;0.55;0.22;;;14.90;71.00;;;;;;5132814;28;20031;-44
2022/09/28 12:49:58;;;;;;;0.85;0.30;;;15.20;70.90;;;;;;5133008;28;20034;-42
2022/09/28 12:52:36;;;;;;;0.28;0.08;;;15.50;70.40;;;;;;5133269;28;20023;-44
2022/09/28 12:55:57;;;;;;;1.75;0.32;;;15.60;69.90;;;;;;5133305;28;20031;-40
2022/09/28 12:58:47;;;;;;;0.40;0.20;;;15.60;69.80;;;;;;5030290;28;20152;-43
2022/09/28 13:01:41;;;;;;;0.75;0.10;;;15.60;69.80;;;;;;5029987;28;20029;-44
2022/09/28 13:04:16;;;;;;;1.13;0.35;;;15.50;69.60;;;;;;5083717;28;20480;-43
2022/09/28 13:07:03;;;;;;;0.30;0.30;;;15.40;69.80;;;;;;5095755;28;20024;-40
2022/09/28 13:09:50;;;;;;;0.88;0.20;;;15.30;69.60;;;;;;5096057;28;20072;-41
2022/09/28 13:12:38;;;;;;;1.95;0.40;;;15.30;69.70;;;;;;5095980;28;20028;-42
2022/09/28 13:15:07;;;;;;;0.20;0.20;;;15.20;69.70;;;;;;5095866;28;20016;-43
2022/09/28 13:17:47;;;;;;;0.43;0.22;;;15.10;70.00;;;;;;5096076;28;20040;-40
2022/09/28 13:20:32;;;;;;;0.65;0.28;;;15.10;70.00;;;;;;5095700;28;20027;-41
2022/09/28 13:23:01;;;;;;;0.20;0.20;;;15.00;70.10;;;;;;5095461;28;20028;-42
2022/09/28 13:25:30;;;;;;;2.33;0.40;;;15.00;70.10;;;;;;5095397;28;20036;-42